Time;durP1;ratioP1;P1;durP2;ratioP2;P2;SDS_P1;SDS_P2;PMS_P1;PMS_P2;Temp;Humidity;BMP_temperature;BMP_pressure;BME280_temperature;BME280_humidity;BME280_pressure;Samples;Min_cycle;Max_cycle;Signal;HPM_P1;HPM_P2
2022/04/16 00:01:49;;;;;;;2.00;1.50;;;10.90;96.60;;;;;;5054191;28;20627;-60
2022/04/16 00:04:16;;;;;;;2.53;1.60;;;10.90;96.70;;;;;;5054354;28;20232;-61
2022/04/16 00:06:44;;;;;;;2.20;1.30;;;10.80;96.70;;;;;;5054563;28;20278;-60
2022/04/16 00:09:11;;;;;;;1.30;1.20;;;10.80;96.90;;;;;;5054648;28;20271;-61
2022/04/16 00:11:38;;;;;;;2.03;1.57;;;10.70;96.90;;;;;;5054618;28;20209;-60
2022/04/16 00:14:05;;;;;;;1.47;1.37;;;10.70;97.00;;;;;;5054301;28;20225;-61
2022/04/16 00:16:32;;;;;;;2.20;1.50;;;10.60;97.10;;;;;;5054361;28;20201;-60
2022/04/16 00:18:59;;;;;;;1.67;1.20;;;10.60;97.10;;;;;;5054382;28;20637;-60
2022/04/16 00:21:26;;;;;;;1.40;1.30;;;10.60;97.50;;;;;;5053276;28;20230;-60
2022/04/16 00:23:54;;;;;;;2.77;1.50;;;10.60;97.50;;;;;;5053951;28;20286;-60
2022/04/16 00:26:21;;;;;;;1.40;1.30;;;10.60;97.20;;;;;;5054019;28;20209;-60
2022/04/16 00:28:48;;;;;;;1.53;1.43;;;10.50;97.30;;;;;;5053913;28;20297;-60
2022/04/16 00:31:15;;;;;;;2.07;1.67;;;10.50;97.50;;;;;;5054052;28;20288;-60
2022/04/16 00:33:42;;;;;;;1.50;1.40;;;10.50;97.50;;;;;;5053871;28;20293;-60
2022/04/16 00:36:09;;;;;;;1.47;1.37;;;10.50;97.60;;;;;;5053638;28;20206;-60
2022/04/16 00:38:36;;;;;;;1.70;1.20;;;10.40;97.70;;;;;;5054030;28;20225;-60
2022/04/16 00:41:04;;;;;;;1.73;1.50;;;10.40;97.60;;;;;;5053946;28;20224;-60
2022/04/16 00:43:31;;;;;;;1.63;1.53;;;10.40;97.60;;;;;;5053555;28;20647;-60
2022/04/16 00:45:58;;;;;;;2.50;1.50;;;10.50;97.70;;;;;;5053978;28;20205;-60
2022/04/16 00:48:26;;;;;;;2.33;1.70;;;10.40;97.70;;;;;;5053678;28;20210;-60
2022/04/16 00:50:54;;;;;;;2.27;1.43;;;10.40;97.80;;;;;;5053592;28;20723;-60
2022/04/16 00:53:21;;;;;;;2.63;1.57;;;10.30;98.00;;;;;;5053753;28;20306;-60
2022/04/16 00:55:49;;;;;;;1.50;1.40;;;10.20;98.10;;;;;;5053462;28;20585;-60
2022/04/16 00:58:16;;;;;;;1.70;1.53;;;10.20;98.10;;;;;;5053564;28;20270;-60
2022/04/16 01:00:43;;;;;;;3.30;1.53;;;10.20;98.40;;;;;;5053537;28;20368;-60
2022/04/16 01:03:10;;;;;;;2.47;1.53;;;10.10;98.80;;;;;;5053357;28;20226;-60
2022/04/16 01:05:37;;;;;;;1.83;1.60;;;10.00;98.90;;;;;;5053565;28;20206;-60
2022/04/16 01:08:05;;;;;;;2.43;1.50;;;10.00;99.00;;;;;;5053210;28;20206;-60
2022/04/16 01:10:33;;;;;;;1.60;1.50;;;10.00;99.20;;;;;;5053402;28;20205;-61
2022/04/16 01:13:01;;;;;;;2.47;1.60;;;9.90;99.60;;;;;;5054498;28;20202;-60
2022/04/16 01:15:29;;;;;;;2.00;1.53;;;10.00;99.30;;;;;;5053177;28;20217;-60
2022/04/16 01:17:58;;;;;;;2.40;1.90;;;10.00;99.20;;;;;;5052676;28;20670;-60
2022/04/16 01:20:25;;;;;;;1.97;1.70;;;10.00;99.20;;;;;;5053157;28;20732;-60
2022/04/16 01:22:58;;;;;;;1.83;1.60;;;10.00;99.20;;;;;;5053000;28;20205;-60
2022/04/16 01:25:26;;;;;;;2.80;1.80;;;10.00;99.30;;;;;;5053013;28;20209;-60
2022/04/16 01:27:53;;;;;;;1.73;1.63;;;10.00;99.30;;;;;;5052728;28;20206;-60
2022/04/16 01:30:22;;;;;;;2.03;1.83;;;10.00;99.30;;;;;;5052649;28;20205;-60
2022/04/16 01:32:49;;;;;;;2.50;1.80;;;10.00;99.30;;;;;;5052915;28;20201;-60
2022/04/16 01:35:17;;;;;;;1.50;1.40;;;10.00;99.50;;;;;;5052794;28;20239;-60
2022/04/16 01:37:44;;;;;;;3.47;1.43;;;10.00;99.50;;;;;;5052492;28;20210;-60
2022/04/16 01:40:14;;;;;;;2.10;1.80;;;9.90;99.90;;;;;;5052558;28;20205;-60
2022/04/16 01:42:43;;;;;;;2.00;1.73;;;9.90;99.90;;;;;;5052655;28;20225;-60
2022/04/16 01:45:11;;;;;;;1.90;1.70;;;9.90;99.90;;;;;;5053140;28;20217;-60
2022/04/16 01:47:38;;;;;;;1.90;1.63;;;9.80;99.90;;;;;;5052416;28;20209;-61
2022/04/16 01:50:07;;;;;;;2.00;1.77;;;9.70;99.90;;;;;;5052523;28;20217;-61
2022/04/16 01:52:36;;;;;;;2.13;1.93;;;9.70;99.90;;;;;;5052242;28;20570;-60
2022/04/16 01:55:04;;;;;;;1.97;1.60;;;9.60;99.90;;;;;;5052216;28;20236;-61
2022/04/16 01:57:32;;;;;;;2.00;1.80;;;9.50;99.90;;;;;;5051887;28;20213;-60
2022/04/16 01:59:59;;;;;;;1.73;1.60;;;9.50;99.90;;;;;;5052432;28;20228;-61
2022/04/16 02:02:26;;;;;;;2.83;1.97;;;9.50;99.90;;;;;;5052191;28;20287;-61
2022/04/16 02:04:52;;;;;;;2.00;1.80;;;9.30;99.90;;;;;;5052230;28;20229;-60
2022/04/16 02:07:19;;;;;;;2.20;2.00;;;9.20;99.90;;;;;;5051811;28;20202;-61
2022/04/16 02:09:46;;;;;;;3.93;2.07;;;9.10;99.90;;;;;;5052064;28;20210;-61
2022/04/16 02:12:13;;;;;;;2.13;1.93;;;9.10;99.90;;;;;;5052154;28;20209;-61
2022/04/16 02:14:41;;;;;;;2.33;2.13;;;9.10;99.90;;;;;;5052054;28;20221;-61
2022/04/16 02:17:08;;;;;;;2.13;1.90;;;9.10;99.90;;;;;;5051770;28;20209;-61
2022/04/16 02:19:36;;;;;;;2.43;2.00;;;9.20;99.90;;;;;;5052143;28;20496;-61
2022/04/16 02:22:03;;;;;;;2.83;2.00;;;9.20;99.90;;;;;;5051832;28;20697;-61
2022/04/16 02:24:30;;;;;;;1.83;1.63;;;9.20;99.90;;;;;;5051820;28;20225;-61
2022/04/16 02:26:58;;;;;;;2.13;1.90;;;9.20;99.90;;;;;;5051705;28;20209;-61
2022/04/16 02:29:24;;;;;;;2.40;2.17;;;9.10;99.90;;;;;;5051909;28;20708;-62
2022/04/16 02:31:53;;;;;;;6.93;2.20;;;9.10;99.90;;;;;;5051890;28;20252;-60
2022/04/16 02:34:20;;;;;;;2.10;1.90;;;9.10;99.90;;;;;;5051693;28;20315;-61
2022/04/16 02:36:47;;;;;;;2.13;1.80;;;9.00;99.90;;;;;;5051500;28;20224;-61
2022/04/16 02:39:15;;;;;;;2.10;1.90;;;9.00;99.90;;;;;;5051759;28;20255;-61
2022/04/16 02:41:42;;;;;;;2.40;1.70;;;8.90;99.90;;;;;;5051767;28;20701;-61
2022/04/16 02:47:05;;;;;;;1.87;1.77;;;8.90;99.90;;;;;;5051514;28;20244;-61
2022/04/16 02:47:06;;;;;;;5.87;2.37;;;8.90;99.90;;;;;;5051467;28;20205;-61
2022/04/16 02:49:33;;;;;;;2.77;1.87;;;8.80;99.90;;;;;;5051860;28;20209;-61
2022/04/16 02:52:00;;;;;;;2.00;1.80;;;8.80;99.90;;;;;;5052191;28;20201;-61
2022/04/16 02:54:27;;;;;;;3.47;2.03;;;8.80;99.90;;;;;;5051891;28;20306;-62
2022/04/16 02:56:55;;;;;;;3.03;1.70;;;8.80;99.90;;;;;;5051443;28;20746;-62
2022/04/16 02:59:21;;;;;;;2.60;2.30;;;8.80;99.90;;;;;;5051695;28;20263;-61
2022/04/16 03:01:48;;;;;;;2.47;2.07;;;9.00;99.90;;;;;;5051413;28;20731;-61
2022/04/16 03:04:17;;;;;;;3.33;2.50;;;9.10;99.90;;;;;;5051324;28;20287;-60
2022/04/16 03:06:44;;;;;;;3.43;2.53;;;9.10;99.90;;;;;;5051438;28;20696;-60
2022/04/16 03:09:11;;;;;;;2.27;2.07;;;9.20;99.90;;;;;;5051819;28;20206;-60
2022/04/16 03:11:38;;;;;;;2.87;1.70;;;9.20;99.90;;;;;;5051490;28;20205;-60
2022/04/16 03:19:31;;;;;;;3.30;3.00;;;9.00;99.90;;;;;;5051364;28;20578;-60
2022/04/16 03:21:58;;;;;;;2.37;2.00;;;8.90;99.90;;;;;;5051389;28;20222;-60
2022/04/16 03:24:25;;;;;;;2.10;1.90;;;8.80;99.90;;;;;;5051248;28;20276;-60
2022/04/16 03:26:51;;;;;;;2.70;1.90;;;8.70;99.90;;;;;;5051160;28;20205;-60
2022/04/16 03:29:18;;;;;;;2.37;1.97;;;8.60;99.90;;;;;;5051284;28;20256;-60
2022/04/16 03:31:45;;;;;;;2.00;1.80;;;8.50;99.90;;;;;;5051458;28;20209;-60
2022/04/16 03:34:11;;;;;;;2.70;2.00;;;8.50;99.90;;;;;;5051222;28;20222;-60
2022/04/16 03:36:39;;;;;;;2.37;2.10;;;8.40;99.90;;;;;;5051444;28;20673;-60
2022/04/16 03:39:06;;;;;;;3.53;2.00;;;8.40;99.90;;;;;;5051575;28;20657;-60
2022/04/16 03:41:32;;;;;;;2.40;2.20;;;8.30;99.90;;;;;;5051092;28;20225;-60
2022/04/16 03:43:59;;;;;;;2.53;2.20;;;8.30;99.90;;;;;;5051397;28;20244;-61
2022/04/16 03:46:26;;;;;;;3.47;2.30;;;8.30;99.90;;;;;;5051170;28;20221;-60
2022/04/16 03:48:52;;;;;;;3.00;2.60;;;8.20;99.90;;;;;;5051269;28;20213;-60
2022/04/16 03:51:19;;;;;;;2.97;2.50;;;8.20;99.90;;;;;;5051221;28;20205;-60
2022/04/16 03:53:47;;;;;;;2.93;2.63;;;8.20;99.90;;;;;;5051097;28;20226;-60
2022/04/16 04:01:42;;;;;;;2.73;2.20;;;8.10;99.90;;;;;;5054504;28;20235;-60
2022/04/16 04:04:10;;;;;;;3.57;2.47;;;8.10;99.90;;;;;;5054541;28;20225;-60
2022/04/16 04:06:38;;;;;;;3.00;2.30;;;8.10;99.90;;;;;;5054139;28;20206;-61
2022/04/16 04:09:06;;;;;;;2.70;2.03;;;8.20;99.90;;;;;;5054321;28;20734;-61
2022/04/16 04:11:33;;;;;;;3.03;2.13;;;8.30;99.90;;;;;;5054532;28;20213;-61
2022/04/16 04:14:00;;;;;;;2.20;2.00;;;8.40;99.90;;;;;;5054076;28;20771;-61
2022/04/16 04:16:26;;;;;;;2.20;2.00;;;8.50;99.90;;;;;;5054094;28;20221;-61
2022/04/16 04:18:53;;;;;;;2.30;2.10;;;8.50;99.90;;;;;;5054217;28;20266;-60
2022/04/16 04:21:20;;;;;;;2.30;2.00;;;8.60;99.90;;;;;;5054113;28;20206;-60
2022/04/16 04:23:46;;;;;;;2.40;2.20;;;8.60;99.90;;;;;;5054012;28;20229;-61
2022/04/16 04:26:14;;;;;;;3.53;2.50;;;8.60;99.90;;;;;;5053842;28;20259;-60
2022/04/16 04:28:41;;;;;;;2.20;2.00;;;8.70;99.90;;;;;;5054063;28;20210;-60
2022/04/16 04:31:10;;;;;;;2.20;2.00;;;8.70;99.90;;;;;;5054078;28;20258;-60
2022/04/16 04:33:37;;;;;;;3.20;2.20;;;8.70;99.90;;;;;;5053897;28;20236;-60
2022/04/16 04:36:03;;;;;;;3.57;2.40;;;8.70;99.90;;;;;;5053778;28;20669;-60
2022/04/16 04:38:30;;;;;;;2.83;2.10;;;8.70;99.90;;;;;;5053767;28;20210;-60
2022/04/16 04:40:58;;;;;;;3.00;2.17;;;8.70;99.90;;;;;;5054191;28;20259;-60
2022/04/16 04:43:27;;;;;;;3.73;2.30;;;8.70;99.90;;;;;;5053724;28;20237;-60
2022/04/16 04:45:54;;;;;;;2.60;2.10;;;8.80;99.90;;;;;;5053892;28;20202;-60
2022/04/16 04:48:20;;;;;;;2.57;2.13;;;8.90;99.90;;;;;;5053969;28;20218;-61
2022/04/16 04:50:47;;;;;;;3.10;2.13;;;8.90;99.90;;;;;;5054048;28;20210;-60
2022/04/16 04:53:14;;;;;;;2.20;2.00;;;9.00;99.90;;;;;;5053631;28;20596;-61
2022/04/16 04:55:41;;;;;;;2.30;2.10;;;9.00;99.90;;;;;;5053795;28;20201;-60
2022/04/16 04:58:07;;;;;;;2.40;1.93;;;9.20;99.90;;;;;;5053481;28;20209;-60
2022/04/16 05:00:35;;;;;;;2.63;2.30;;;9.20;99.90;;;;;;5053655;28;20263;-60
2022/04/16 05:03:02;;;;;;;3.93;2.27;;;9.30;99.90;;;;;;5053345;28;20233;-60
2022/04/16 05:05:29;;;;;;;3.07;1.97;;;9.40;99.90;;;;;;5053758;28;20206;-60
2022/04/16 05:07:55;;;;;;;2.70;2.20;;;9.50;99.90;;;;;;5053056;28;20206;-60
2022/04/16 05:10:22;;;;;;;3.30;2.47;;;9.60;99.90;;;;;;5053347;28;20259;-61
2022/04/16 05:12:49;;;;;;;3.00;2.20;;;9.70;99.90;;;;;;5053137;28;20263;-61
2022/04/16 05:15:16;;;;;;;2.93;2.30;;;9.80;99.90;;;;;;5053151;28;20208;-61
2022/04/16 05:17:44;;;;;;;2.37;2.17;;;9.80;99.90;;;;;;5052842;28;20408;-61
2022/04/16 05:20:11;;;;;;;2.43;2.23;;;10.00;99.90;;;;;;5053288;28;20279;-61
2022/04/16 05:22:38;;;;;;;6.00;4.50;;;10.00;99.90;;;;;;5052898;28;20223;-61
2022/04/16 05:25:06;;;;;;;5.47;2.33;;;10.10;99.90;;;;;;5053057;28;20275;-61
2022/04/16 05:27:34;;;;;;;2.63;2.40;;;10.10;99.90;;;;;;5052629;28;20228;-61
2022/04/16 05:30:12;;;;;;;2.90;2.60;;;10.20;99.90;;;;;;5052795;28;20634;-61
2022/04/16 05:32:41;;;;;;;3.47;2.27;;;10.20;99.90;;;;;;5052935;28;20205;-61
2022/04/16 05:35:11;;;;;;;7.60;4.93;;;10.30;99.90;;;;;;5052718;28;20666;-61
2022/04/16 05:37:38;;;;;;;2.37;2.17;;;10.30;99.90;;;;;;5052507;28;20569;-61
2022/04/16 05:40:07;;;;;;;2.60;2.40;;;10.30;99.90;;;;;;5052647;28;20263;-60
2022/04/16 05:42:38;;;;;;;3.00;2.50;;;10.30;99.90;;;;;;5052585;28;20647;-61
2022/04/16 05:45:06;;;;;;;3.20;2.90;;;10.30;99.90;;;;;;5052680;28;20237;-61
2022/04/16 05:47:33;;;;;;;16.03;10.87;;;10.40;99.90;;;;;;5052228;28;20209;-61
2022/04/16 05:49:59;;;;;;;7.70;3.20;;;10.50;99.90;;;;;;5052689;28;20681;-61
2022/04/16 05:52:28;;;;;;;5.60;4.53;;;10.60;99.90;;;;;;5052524;28;20662;-60
2022/04/16 05:54:55;;;;;;;5.70;3.57;;;10.70;99.90;;;;;;5052291;28;20225;-60
2022/04/16 05:57:23;;;;;;;2.70;2.37;;;10.80;99.90;;;;;;5052365;28;20206;-61
2022/04/16 05:59:50;;;;;;;4.33;3.17;;;10.80;99.90;;;;;;5052393;28;20283;-60
2022/04/16 06:02:17;;;;;;;36.97;22.20;;;10.90;99.90;;;;;;5052366;28;20648;-61
2022/04/16 06:04:43;;;;;;;22.90;15.00;;;10.90;99.90;;;;;;5052281;28;20229;-61
2022/04/16 06:07:10;;;;;;;7.27;5.00;;;11.00;99.90;;;;;;5051763;28;20262;-61
2022/04/16 06:09:38;;;;;;;5.93;4.33;;;11.10;99.90;;;;;;5052003;28;20209;-60
2022/04/16 06:12:06;;;;;;;3.87;3.23;;;11.10;99.90;;;;;;5052160;28;20201;-60
2022/04/16 06:14:32;;;;;;;3.23;2.83;;;11.10;99.90;;;;;;5051997;28;20233;-61
2022/04/16 06:16:59;;;;;;;3.57;3.03;;;11.10;99.90;;;;;;5051665;28;20572;-61
2022/04/16 06:19:26;;;;;;;5.17;3.67;;;11.30;99.90;;;;;;5051461;28;20627;-61
2022/04/16 06:21:52;;;;;;;3.37;3.00;;;11.40;99.90;;;;;;5051894;28;20648;-61
2022/04/16 06:24:19;;;;;;;4.37;3.30;;;11.40;99.90;;;;;;5051974;28;20234;-60
2022/04/16 06:26:48;;;;;;;6.90;3.80;;;11.50;99.90;;;;;;5051775;28;20205;-60
2022/04/16 06:29:15;;;;;;;4.83;4.10;;;11.70;99.90;;;;;;5052166;28;20212;-60
2022/04/16 06:31:42;;;;;;;3.87;2.90;;;11.80;99.90;;;;;;5051866;28;20213;-61
2022/04/16 06:34:09;;;;;;;3.30;3.00;;;11.90;99.90;;;;;;5051811;28;20244;-60
2022/04/16 06:36:37;;;;;;;4.30;3.20;;;12.00;99.90;;;;;;5051363;28;20209;-60
2022/04/16 06:39:04;;;;;;;4.17;3.40;;;12.20;99.90;;;;;;5051962;28;20212;-60
2022/04/16 06:41:30;;;;;;;3.50;3.10;;;12.30;99.90;;;;;;5051790;28;20209;-61
2022/04/16 06:43:58;;;;;;;4.27;3.20;;;12.40;99.90;;;;;;5051519;28;20237;-61
2022/04/16 06:46:25;;;;;;;4.40;2.93;;;12.40;99.90;;;;;;5051284;28;20214;-60
2022/04/16 06:48:52;;;;;;;5.33;4.33;;;12.30;99.90;;;;;;5051816;28;20209;-61
2022/04/16 06:51:19;;;;;;;5.53;3.27;;;12.30;99.90;;;;;;5051560;28;20209;-59
2022/04/16 06:53:45;;;;;;;4.03;3.57;;;12.40;99.90;;;;;;5051776;28;20279;-61
2022/04/16 06:56:12;;;;;;;4.50;3.70;;;12.60;99.90;;;;;;5051978;28;20224;-61
2022/04/16 06:58:38;;;;;;;4.10;3.40;;;12.60;99.90;;;;;;5051703;28;20210;-61
2022/04/16 07:01:06;;;;;;;5.50;3.70;;;12.60;99.90;;;;;;5051842;28;20263;-59
2022/04/16 07:03:33;;;;;;;5.23;3.60;;;12.60;99.90;;;;;;5051965;28;20225;-60
2022/04/16 07:06:00;;;;;;;4.43;3.60;;;12.50;99.90;;;;;;5051620;28;20233;-60
2022/04/16 07:08:26;;;;;;;5.63;4.73;;;12.40;99.90;;;;;;5051208;28;20642;-60
2022/04/16 07:10:53;;;;;;;4.00;3.60;;;12.40;99.90;;;;;;5051677;28;20259;-59
2022/04/16 07:13:20;;;;;;;4.70;3.93;;;12.30;99.90;;;;;;5051673;28;20222;-60
2022/04/16 07:15:47;;;;;;;4.40;3.73;;;12.20;99.90;;;;;;5051491;28;20241;-60
2022/04/16 07:18:15;;;;;;;7.33;5.73;;;12.20;99.90;;;;;;5051389;28;20589;-60
2022/04/16 07:20:42;;;;;;;4.77;4.20;;;12.10;99.90;;;;;;5051603;28;20608;-60
2022/04/16 07:23:09;;;;;;;5.67;4.67;;;12.10;99.90;;;;;;5051768;28;20279;-60
2022/04/16 07:25:36;;;;;;;3.90;3.50;;;12.10;99.90;;;;;;5051470;28;20205;-60
2022/04/16 07:28:03;;;;;;;6.93;4.83;;;12.00;99.90;;;;;;5051117;28;20722;-60
2022/04/16 07:30:30;;;;;;;7.10;4.70;;;12.00;99.90;;;;;;5051347;28;20206;-59
2022/04/16 07:32:56;;;;;;;6.83;5.17;;;12.00;99.90;;;;;;5054972;28;20205;-60
2022/04/16 07:35:26;;;;;;;5.67;4.37;;;12.10;99.90;;;;;;5055033;28;20206;-61
2022/04/16 07:37:56;;;;;;;6.20;4.97;;;12.20;99.90;;;;;;5054913;28;20322;-60
2022/04/16 07:40:24;;;;;;;6.63;4.43;;;12.30;99.90;;;;;;5055200;28;20232;-60
2022/04/16 07:42:50;;;;;;;5.57;4.30;;;12.50;99.90;;;;;;5054405;28;20276;-60
2022/04/16 07:45:17;;;;;;;5.23;4.30;;;12.60;99.90;;;;;;5095778;22;20584;-60
2022/04/16 07:47:44;;;;;;;4.73;4.20;;;12.70;99.90;;;;;;5074771;28;20668;-60
2022/04/16 07:50:11;;;;;;;6.00;4.87;;;12.70;99.90;;;;;;5075338;28;20208;-60
2022/04/16 07:52:39;;;;;;;5.23;4.60;;;12.60;99.90;;;;;;5075053;28;20234;-60
2022/04/16 07:55:07;;;;;;;4.73;4.23;;;12.70;99.90;;;;;;5075041;28;20231;-60
2022/04/16 07:57:34;;;;;;;5.83;4.87;;;12.80;99.90;;;;;;5074746;28;20197;-61
2022/04/16 08:00:00;;;;;;;4.77;4.20;;;12.90;99.90;;;;;;5074913;28;20263;-60
2022/04/16 08:02:28;;;;;;;39.93;14.50;;;12.90;99.90;;;;;;5075036;28;20278;-59
2022/04/16 08:04:55;;;;;;;11.13;5.93;;;12.90;99.90;;;;;;5074721;28;20252;-58
2022/04/16 08:07:22;;;;;;;6.47;4.80;;;12.90;99.90;;;;;;5074449;28;20205;-57
2022/04/16 08:09:50;;;;;;;4.80;4.00;;;12.90;99.90;;;;;;5074701;28;20434;-57
2022/04/16 08:12:17;;;;;;;5.87;4.30;;;12.90;99.90;;;;;;5074422;28;20208;-57
2022/04/16 08:14:43;;;;;;;5.53;4.40;;;12.90;99.90;;;;;;5074440;28;20227;-58
2022/04/16 08:17:10;;;;;;;5.83;4.80;;;13.00;99.90;;;;;;5074859;28;20546;-58
2022/04/16 08:19:37;;;;;;;5.17;4.67;;;13.10;99.90;;;;;;5074494;28;20216;-58
2022/04/16 08:22:07;;;;;;;5.80;4.97;;;13.30;99.90;;;;;;5074480;28;20209;-58
2022/04/16 08:24:41;;;;;;;6.57;5.00;;;13.30;99.90;;;;;;5074263;28;20273;-58
2022/04/16 08:27:09;;;;;;;7.03;5.00;;;13.30;99.90;;;;;;5074648;28;20211;-56
2022/04/16 08:29:37;;;;;;;6.87;5.57;;;13.30;99.90;;;;;;5074131;28;20207;-57
2022/04/16 08:32:06;;;;;;;6.00;5.33;;;13.20;99.90;;;;;;5074087;28;20208;-56
2022/04/16 08:34:32;;;;;;;7.20;6.07;;;13.10;99.90;;;;;;5075032;28;20229;-56
2022/04/16 08:36:59;;;;;;;7.47;6.10;;;13.00;99.90;;;;;;5074797;28;20223;-56
2022/04/16 08:39:28;;;;;;;7.63;6.20;;;13.00;99.90;;;;;;5074551;28;20233;-57
2022/04/16 08:41:56;;;;;;;6.77;6.07;;;13.20;99.90;;;;;;5074173;28;20350;-57
2022/04/16 08:44:26;;;;;;;7.47;6.37;;;13.40;99.90;;;;;;5073377;28;20319;-55
2022/04/16 08:46:55;;;;;;;6.67;5.50;;;13.70;99.90;;;;;;5074071;28;20208;-56
2022/04/16 08:49:22;;;;;;;8.40;5.90;;;14.00;99.90;;;;;;5074690;28;20247;-56
2022/04/16 08:51:49;;;;;;;7.87;5.60;;;14.20;99.60;;;;;;5075157;28;20205;-57
2022/04/16 08:54:16;;;;;;;6.13;5.20;;;14.40;99.60;;;;;;5074760;28;20951;-56
2022/04/16 08:56:43;;;;;;;6.90;5.53;;;14.50;98.90;;;;;;5074246;28;20244;-57
2022/04/16 08:59:10;;;;;;;6.50;5.90;;;14.50;98.90;;;;;;5074524;28;20209;-56
2022/04/16 09:01:38;;;;;;;6.47;5.60;;;14.60;98.90;;;;;;5074241;28;20209;-56
2022/04/16 09:04:05;;;;;;;6.23;5.63;;;14.60;98.70;;;;;;5074059;28;20476;-56
2022/04/16 09:06:31;;;;;;;6.90;6.00;;;14.50;99.20;;;;;;5073933;28;20208;-57
2022/04/16 09:09:09;;;;;;;6.93;5.50;;;14.50;99.00;;;;;;5073119;28;20664;-56
2022/04/16 09:11:36;;;;;;;6.90;5.33;;;14.60;98.60;;;;;;5074182;28;20205;-56
2022/04/16 09:14:03;;;;;;;8.00;5.23;;;14.70;98.60;;;;;;5073398;28;20217;-57
2022/04/16 09:16:33;;;;;;;6.70;5.50;;;14.70;98.20;;;;;;5073123;28;20680;-57
2022/04/16 09:19:01;;;;;;;8.07;6.20;;;14.70;98.00;;;;;;5073039;28;20238;-56
2022/04/16 09:21:29;;;;;;;8.10;6.13;;;14.80;97.60;;;;;;5073495;28;20209;-55
2022/04/16 09:23:59;;;;;;;6.93;5.70;;;14.80;96.90;;;;;;5073531;28;20232;-58
2022/04/16 09:26:27;;;;;;;7.17;6.10;;;14.80;96.90;;;;;;5073904;28;20213;-59
2022/04/16 09:28:54;;;;;;;7.13;5.73;;;14.90;96.50;;;;;;5073407;28;20275;-58
2022/04/16 09:31:27;;;;;;;7.33;6.43;;;14.90;96.50;;;;;;5073095;28;20207;-62
2022/04/16 09:33:53;;;;;;;6.90;5.80;;;15.00;95.90;;;;;;5072661;28;20654;-57
2022/04/16 09:36:25;;;;;;;7.07;5.80;;;15.20;95.80;;;;;;5073167;28;20216;-58
2022/04/16 09:39:01;;;;;;;6.50;5.37;;;15.40;94.80;;;;;;5072962;28;20205;-57
2022/04/16 09:41:34;;;;;;;7.93;5.80;;;15.70;95.00;;;;;;5073398;28;20243;-57
2022/04/16 09:44:01;;;;;;;6.63;5.50;;;15.90;94.00;;;;;;5072927;28;20232;-57
2022/04/16 09:46:29;;;;;;;6.47;5.40;;;16.00;93.60;;;;;;5073053;28;20204;-58
2022/04/16 09:49:02;;;;;;;6.23;5.40;;;16.00;93.10;;;;;;5072728;28;20208;-58
2022/04/16 09:51:33;;;;;;;6.17;5.37;;;15.80;93.40;;;;;;5073215;28;20262;-58
2022/04/16 09:54:03;;;;;;;6.97;5.70;;;15.50;93.10;;;;;;5072253;28;20256;-57
2022/04/16 09:56:31;;;;;;;7.20;6.00;;;15.30;93.80;;;;;;5072288;28;20216;-57
2022/04/16 09:59:01;;;;;;;8.50;6.13;;;15.20;94.00;;;;;;5072613;28;20205;-57
2022/04/16 10:01:29;;;;;;;7.30;6.30;;;14.90;94.00;;;;;;5072778;28;20220;-57
2022/04/16 10:03:57;;;;;;;7.67;6.30;;;14.70;94.70;;;;;;5072636;28;20315;-58
2022/04/16 10:06:24;;;;;;;6.60;5.90;;;14.80;94.70;;;;;;5072659;28;20208;-58
2022/04/16 10:08:52;;;;;;;7.80;6.00;;;14.90;94.60;;;;;;5071933;28;20209;-57
2022/04/16 10:11:21;;;;;;;7.10;6.10;;;15.20;94.30;;;;;;5072513;28;20678;-58
2022/04/16 10:13:59;;;;;;;9.40;6.53;;;15.20;94.00;;;;;;5072517;28;20244;-57
2022/04/16 10:16:33;;;;;;;8.50;6.30;;;15.10;94.00;;;;;;5072616;28;20673;-58
2022/04/16 10:18:59;;;;;;;6.43;5.60;;;15.00;94.20;;;;;;5072136;28;20725;-58
2022/04/16 10:21:34;;;;;;;7.53;6.10;;;15.10;94.10;;;;;;5072449;28;20208;-57
2022/04/16 10:24:02;;;;;;;7.77;6.40;;;15.30;93.60;;;;;;5071728;28;20318;-58
2022/04/16 10:26:39;;;;;;;9.87;7.77;;;15.60;93.20;;;;;;5072094;28;20205;-57
2022/04/16 10:29:06;;;;;;;6.87;5.70;;;15.90;93.00;;;;;;5072175;28;20262;-57
2022/04/16 10:31:36;;;;;;;7.07;6.00;;;16.10;91.80;;;;;;5071728;28;20680;-57
2022/04/16 10:34:09;;;;;;;6.23;5.50;;;16.00;91.60;;;;;;5071698;28;20220;-57
2022/04/16 10:36:38;;;;;;;7.20;5.70;;;16.20;91.20;;;;;;5071881;28;20255;-57
2022/04/16 10:39:17;;;;;;;6.40;5.00;;;16.60;91.20;;;;;;5071679;28;20204;-57
2022/04/16 10:41:54;;;;;;;6.57;5.30;;;17.10;89.50;;;;;;5071877;28;20246;-57
2022/04/16 10:44:21;;;;;;;6.27;5.10;;;17.20;89.10;;;;;;5071871;28;20311;-57
2022/04/16 10:46:49;;;;;;;6.10;5.50;;;17.00;88.80;;;;;;5071953;28;20211;-57
2022/04/16 10:49:17;;;;;;;8.67;5.33;;;16.80;88.70;;;;;;5072763;28;20205;-57
2022/04/16 10:51:44;;;;;;;7.50;4.90;;;16.70;88.60;;;;;;5072461;28;20231;-56
2022/04/16 10:54:13;;;;;;;5.03;4.47;;;16.50;87.70;;;;;;5072496;28;20316;-57
2022/04/16 10:56:45;;;;;;;4.93;4.30;;;16.30;88.20;;;;;;5072207;28;20213;-57
2022/04/16 10:59:12;;;;;;;5.87;4.73;;;16.30;88.70;;;;;;5071903;28;20212;-58
2022/04/16 11:01:39;;;;;;;5.43;4.77;;;16.50;88.70;;;;;;5072338;28;20209;-56
2022/04/16 11:04:14;;;;;;;5.80;4.50;;;16.70;88.40;;;;;;5071923;28;20251;-56
2022/04/16 11:06:44;;;;;;;7.07;5.17;;;16.80;86.90;;;;;;5074313;28;20211;-58
2022/04/16 11:09:12;;;;;;;6.53;5.10;;;16.60;87.60;;;;;;5075997;28;20369;-56
2022/04/16 11:11:43;;;;;;;6.03;4.67;;;16.50;87.90;;;;;;5076881;28;20205;-57
2022/04/16 11:14:11;;;;;;;6.33;4.40;;;16.50;86.60;;;;;;5079048;28;20615;-56
2022/04/16 11:16:44;;;;;;;6.40;5.13;;;16.50;86.90;;;;;;5076060;28;20220;-55
2022/04/16 11:19:15;;;;;;;7.33;4.53;;;16.50;87.00;;;;;;5075353;28;20221;-60
2022/04/16 11:21:42;;;;;;;5.07;4.07;;;16.50;88.00;;;;;;5075332;28;20251;-57
2022/04/16 11:24:10;;;;;;;4.20;3.80;;;16.50;85.90;;;;;;5074926;28;20221;-57
2022/04/16 11:34:53;;;;;;;4.93;3.70;;;16.40;85.20;;;;;;5075541;28;20219;-57
2022/04/16 11:37:20;;;;;;;4.50;3.60;;;16.00;84.00;;;;;;5074878;28;20614;-57
2022/04/16 11:39:48;;;;;;;4.43;3.90;;;15.70;86.20;;;;;;5075251;28;20208;-58
2022/04/16 11:42:15;;;;;;;4.57;3.60;;;15.60;80.90;;;;;;5074957;28;20289;-57
2022/04/16 11:44:45;;;;;;;4.77;4.13;;;15.40;79.30;;;;;;5075145;28;20236;-57
2022/04/16 11:47:14;;;;;;;6.53;4.40;;;15.30;78.80;;;;;;5075154;28;20209;-57
2022/04/16 11:49:42;;;;;;;5.47;3.87;;;15.20;79.60;;;;;;5075218;28;20212;-57
2022/04/16 11:52:10;;;;;;;5.90;4.27;;;15.20;80.90;;;;;;5075165;28;20216;-58
2022/04/16 11:54:38;;;;;;;4.80;3.73;;;15.30;80.60;;;;;;5074878;28;20229;-57
2022/04/16 11:57:05;;;;;;;3.93;3.40;;;15.20;80.60;;;;;;5074691;28;20330;-57
2022/04/16 11:59:32;;;;;;;4.77;3.50;;;15.20;82.20;;;;;;5074884;28;20217;-57
2022/04/16 12:02:05;;;;;;;4.33;3.93;;;15.10;82.00;;;;;;5075026;28;20227;-58
2022/04/16 12:04:37;;;;;;;4.10;3.40;;;15.00;83.80;;;;;;5074747;28;20228;-57
2022/04/16 12:07:04;;;;;;;4.03;3.63;;;15.00;82.80;;;;;;5074399;28;20209;-58
2022/04/16 12:09:32;;;;;;;4.67;3.30;;;15.10;81.50;;;;;;5074734;28;20209;-58
2022/04/16 12:12:00;;;;;;;4.47;3.57;;;15.20;81.30;;;;;;5074414;28;20642;-58
2022/04/16 12:14:27;;;;;;;4.70;3.33;;;15.20;80.70;;;;;;5074644;28;20221;-58
2022/04/16 12:17:01;;;;;;;5.80;3.70;;;15.30;80.90;;;;;;5073978;28;20205;-58
2022/04/16 12:19:31;;;;;;;5.07;3.70;;;15.40;80.80;;;;;;5074081;28;20222;-58
2022/04/16 12:21:58;;;;;;;4.20;3.27;;;15.50;80.20;;;;;;5074425;28;20732;-58
2022/04/16 12:24:28;;;;;;;4.13;3.10;;;15.60;81.00;;;;;;5074154;28;20316;-58
2022/04/16 12:26:56;;;;;;;4.40;3.40;;;15.50;79.80;;;;;;5074544;28;20232;-58
2022/04/16 12:29:30;;;;;;;4.17;3.43;;;15.40;80.00;;;;;;5074178;28;20676;-57
2022/04/16 12:31:58;;;;;;;5.07;3.73;;;15.20;81.60;;;;;;5074647;28;20286;-57
2022/04/16 12:34:27;;;;;;;4.07;3.60;;;15.30;81.70;;;;;;5074242;28;20311;-57
2022/04/16 12:36:54;;;;;;;3.50;3.20;;;15.40;82.70;;;;;;5074018;28;20208;-57
2022/04/16 12:39:23;;;;;;;4.63;3.60;;;15.40;81.90;;;;;;5073782;28;20208;-57
2022/04/16 12:41:50;;;;;;;4.23;3.20;;;15.30;83.00;;;;;;5074152;28;20641;-57
2022/04/16 12:44:17;;;;;;;5.67;3.63;;;15.50;83.50;;;;;;5073877;28;20236;-58
2022/04/16 12:46:43;;;;;;;4.43;3.43;;;15.60;82.00;;;;;;5074030;28;20205;-58
2022/04/16 12:49:10;;;;;;;5.47;3.60;;;15.70;81.40;;;;;;5074003;28;20205;-60
2022/04/16 12:51:38;;;;;;;3.47;3.10;;;15.70;80.50;;;;;;5073932;28;20300;-58
2022/04/16 12:54:05;;;;;;;4.07;3.47;;;15.60;80.30;;;;;;5074134;28;20224;-58
2022/04/16 12:56:32;;;;;;;4.30;3.07;;;15.60;79.20;;;;;;5074021;28;20205;-58
2022/04/16 12:58:58;;;;;;;5.47;3.00;;;15.50;78.50;;;;;;5074122;28;20205;-59
2022/04/16 13:01:26;;;;;;;4.97;2.77;;;15.50;77.40;;;;;;5074051;28;20209;-57
2022/04/16 13:03:53;;;;;;;4.13;3.00;;;15.50;77.60;;;;;;5073916;28;20234;-58
2022/04/16 13:06:20;;;;;;;4.73;3.73;;;15.60;78.70;;;;;;5073210;28;20719;-58
2022/04/16 13:08:48;;;;;;;3.97;3.13;;;15.50;77.40;;;;;;5073695;28;20208;-61
2022/04/16 13:11:17;;;;;;;3.70;2.77;;;15.50;77.50;;;;;;5073981;28;20205;-58
2022/04/16 13:13:44;;;;;;;3.63;3.03;;;15.40;76.80;;;;;;5073613;28;20312;-58